Juneau International Airport
PAJN : now visible

Airfield :











YOU CAN JOIN US ON...

 
LOGIN :

Register | Disclaimer

   EN    FR    IT 

 









Legend :    VFR   Marginal VFR   IFR   Intensive IFR   Very Intensive IFR
Visi :
Ceiling :
>= 8 km
>= 3000ft
5 to 8 km
1000 to 3000 ft
1500m to 5 km
500 to 1000 ft
800 to 1500m
200 to 500 ft
< 800m
< 200 ft
Symbols :   Thunderstorms  Fog  Heavy snow  Heavy precipitations  Wind > 20 kt






- Airport Elevation : 21 ft
- IATA code : JNU


PAJN - Juneau International

CURRENT METAR :
  • 082053Z 08010KT 10SM -RA FEW005 SCT028 OVC041 04/03 A3008 RMK RAB29 SLP187 VIS LWR N P0000 60002 T00440028 53005 VIA AUTODIAL

EXPIRED METARs :
  • 081953Z 07013KT 8SM SCT005 SCT009 OVC032 04/03 A3007 RMK RAB1859E28 SLP183 SCT009 V BKN P0001 T00390028 VIA AUTODIAL
  • 081853Z 08013KT 7SM SCT005 SCT012 OVC032 04/02 A3007 RMK AO2 RAE52 SLP183 VIS LWR SE P0001 T00390022

TAF PAJN
Valid from the 08 at 18:00 until the 09 at 18:00 UTC


081728Z 0818/0918 09012KT P6SM -RA FEW007 SCT035 OVC050
FM090300 08005KT P6SM FEW003 SCT035 OVC050
FM090900 VRB03KT 1SM BCFG BKN003



MET'MAP, your aeronautical weather chart ! - Copyright ORBIFLY December 2007 - Disclaimer

ORBIFLY MET'MAP TEAM :

Programming & Development : Alexandra Zaïnal
Concept & original design : Baudouin d'Aumeries
Assistance for programming : Marc-Olivier Méhu
Technical & hardware support : Manuel Goepfert

Contact : metmap@orbifly.com




SOURCES & CREDITS :

   NOAA       Earth
Advisory